Dades meteomassalio
Diari Summary for Noviembre 20, 2017 Units:  Metric    English   Both
« Previous Day
Next Day »
Diari Semanal Mensual Anual Personalitzat
  Maxima: Minima: Mijana:
Temperatura: -17.8 °C -19.3 °C -15.9 °C
Rosada: -17.8 °C -21.7 °C -20.4 °C
Humitat: Humidity % 33 % 58 %
Velocitat del vent: 0 km/h 0 km/h 0.6 km/h
Racha vent: 0 km/h - -
Vent:- - East
Pressio: 0 hPa 34716.7 hPa -
Pluja: 0 mm    
Historical Graphs
 
 
Tabular Data for Noviembre 20, 2017
Time Temperature Dew Point Pressure Wind Wind Speed Wind Gust Humidity Rainfall Rate (Hourly) solar Conditions
-17.8 °C -17.8 °C 0 hPa Calm     Humidity % 0 mm SolarRadiationWatts/m^2 W/m2 Conditions
00:00 -18.1 °C -20.7 °C 34774.2 hPa Calm     70 % 0 mm 0.0 W/m2 CLR
00:05 -18.1 °C -20.7 °C 34774.2 hPa Calm     71 % 0 mm 0.0 W/m2 CLR
00:10 -18.1 °C -20.7 °C 34774.2 hPa Calm     70 % 0 mm 0.0 W/m2 CLR
00:15 -18.1 °C -20.7 °C 34774.2 hPa Calm     70 % 0 mm 0.0 W/m2 CLR
00:20 -18.1 °C -20.7 °C 34774.2 hPa Calm     71 % 0 mm 0.0 W/m2 CLR
00:35 -18.1 °C -20.7 °C 34774.2 hPa Calm     71 % 0 mm 0.0 W/m2 CLR
00:40 -18.1 °C -20.6 °C 34774.2 hPa Calm     72 % 0 mm 0.0 W/m2 CLR
00:50 -18.1 °C -20.7 °C 34774.2 hPa Calm     71 % 0 mm 0.0 W/m2 CLR
00:55 -18.4 °C -21.1 °C 34774.2 hPa Calm     70 % 0 mm 0.0 W/m2 CLR
01:00 -18.4 °C -21.1 °C 34774.2 hPa Calm     70 % 0 mm 0.0 W/m2 CLR
01:05 -18.4 °C -21.1 °C 34774.2 hPa Calm     70 % 0 mm 0.0 W/m2 CLR
01:15 -18.4 °C -21.1 °C 34774.2 hPa Calm     70 % 0 mm 0.0 W/m2 CLR
01:25 -18.4 °C -21.2 °C 34774.2 hPa Calm     69 % 0 mm 0.0 W/m2 CLR
01:30 -18.4 °C -21.1 °C 34774.2 hPa Calm     70 % 0 mm 0.0 W/m2 CLR
01:35 -18.1 °C -20.9 °C 34774.2 hPa Calm     69 % 0 mm 0.0 W/m2 CLR
01:45 -18.4 °C -21.2 °C 34774.2 hPa Calm     69 % 0 mm 0.0 W/m2 CLR
01:50 -18.4 °C -20.9 °C 34774.2 hPa Calm     71 % 0 mm 0.0 W/m2 CLR
01:55 -18.4 °C -20.8 °C 34774.2 hPa Calm     72 % 0 mm 0.0 W/m2 CLR
02:00 -18.4 °C -20.8 °C 34774.2 hPa Calm     72 % 0 mm 0.0 W/m2 CLR
02:05 -18.7 °C -21.2 °C 34774.2 hPa Calm     72 % 0 mm 0.0 W/m2 CLR
02:10 -18.7 °C -21.2 °C 34774.2 hPa Calm     72 % 0 mm 0.0 W/m2 CLR
02:15 -18.7 °C -21.2 °C 34774.2 hPa Calm     71 % 0 mm 0.0 W/m2 CLR
02:20 -18.7 °C -21.2 °C 34774.2 hPa Calm     71 % 0 mm 0.0 W/m2 CLR
02:25 -18.7 °C -21.3 °C 34774.2 hPa Calm     70 % 0 mm 0.0 W/m2 CLR
02:30 -18.7 °C -21.2 °C 34774.2 hPa Calm     71 % 0 mm 0.0 W/m2 CLR
02:35 -18.7 °C -21.3 °C 34774.2 hPa Calm     70 % 0 mm 0.0 W/m2 CLR
02:45 -18.7 °C -21.2 °C 34774.2 hPa Calm     71 % 0 mm 0.0 W/m2 CLR
02:50 -18.4 °C -20.9 °C 34774.2 hPa Calm     71 % 0 mm 0.0 W/m2 CLR
03:00 -18.7 °C -21.3 °C 34774.2 hPa Calm     70 % 0 mm 0.0 W/m2 CLR
03:05 -18.7 °C -21.3 °C 34774.2 hPa Calm     70 % 0 mm 0.0 W/m2 CLR
03:10 -18.7 °C -21.2 °C 34774.2 hPa Calm     71 % 0 mm 0.0 W/m2 CLR
03:15 -18.7 °C -21.2 °C 34774.2 hPa Calm     71 % 0 mm 0.0 W/m2 CLR
03:25 -18.7 °C -21.3 °C 34774.2 hPa Calm     70 % 0 mm 0.0 W/m2 CLR
03:30 -18.7 °C -21.3 °C 34774.2 hPa Calm     70 % 0 mm 0.0 W/m2 CLR
03:35 -18.7 °C -21.3 °C 34774.2 hPa Calm     70 % 0 mm 0.0 W/m2 CLR
03:40 -18.7 °C -21.2 °C 34774.2 hPa Calm     71 % 0 mm 0.0 W/m2 CLR
03:45 -18.7 °C -21.3 °C 34774.2 hPa Calm     70 % 0 mm 0.0 W/m2 CLR
03:50 -18.7 °C -21.3 °C 34774.2 hPa Calm     70 % 0 mm 0.0 W/m2 CLR
04:05 -18.4 °C -21.1 °C 34774.2 hPa Calm     70 % 0 mm 0.0 W/m2 CLR
04:16 -18.7 °C -21.2 °C 34774.2 hPa Calm     71 % 0 mm 0.0 W/m2 CLR
04:21 -18.7 °C -21.2 °C 34774.2 hPa Calm     71 % 0 mm 0.0 W/m2 CLR
04:26 -18.7 °C -21.2 °C 34774.2 hPa Calm     72 % 0 mm 0.0 W/m2 CLR
04:36 -18.7 °C -21.2 °C 34774.2 hPa Calm     72 % 0 mm 0.0 W/m2 CLR
04:46 -19 °C -21.2 °C 34774.2 hPa Calm     74 % 0 mm 0.0 W/m2 CLR
04:51 -19 °C -21.2 °C 34760.7 hPa Calm     74 % 0 mm 0.0 W/m2 CLR
04:56 -19 °C -21.3 °C 34760.7 hPa Calm     73 % 0 mm 0.0 W/m2 CLR
05:16 -19 °C -21.2 °C 34760.7 hPa Calm     75 % 0 mm 0.0 W/m2 CLR
05:21 -19 °C -21.2 °C 34774.2 hPa Calm     75 % 0 mm 0.0 W/m2 CLR
05:26 -19 °C -21.2 °C 34774.2 hPa Calm     74 % 0 mm 0.0 W/m2 CLR
05:31 -19 °C -21.2 °C 34774.2 hPa Calm     74 % 0 mm 0.0 W/m2 CLR
05:37 -19 °C -21.2 °C 34774.2 hPa Calm     74 % 0 mm 0.0 W/m2 CLR
05:42 -19 °C -21.2 °C 34774.2 hPa Calm     74 % 0 mm 0.0 W/m2 CLR
05:52 -19 °C -21.2 °C 34774.2 hPa Calm     74 % 0 mm 0.0 W/m2 CLR
05:57 -19 °C -21.2 °C 34774.2 hPa Calm     75 % 0 mm 0.0 W/m2 CLR
06:02 -19 °C -21.2 °C 34774.2 hPa Calm     75 % 0 mm 0.0 W/m2 CLR
06:12 -19 °C -21.1 °C 34774.2 hPa Calm     76 % 0 mm 0.0 W/m2 CLR
06:17 -19 °C -21.1 °C 34774.2 hPa Calm     76 % 0 mm 0.0 W/m2 CLR
06:18 -19 °C -21.1 °C 34774.2 hPa Calm     76 % 0 mm 0.0 W/m2 CLR
06:23 -19 °C -21.1 °C 34774.2 hPa Calm     76 % 0 mm 0.0 W/m2 CLR
06:43 -19 °C -20.9 °C 34774.2 hPa Calm     78 % 0 mm 0.0 W/m2 CLR
06:48 -19 °C -20.9 °C 34784.4 hPa Calm     77 % 0 mm 0.0 W/m2 CLR
06:58 -19 °C -20.9 °C 34784.4 hPa Calm     78 % 0 mm 0.0 W/m2 CLR
07:03 -19.3 °C -21.3 °C 34774.2 hPa Calm     77 % 0 mm 0.0 W/m2 CLR
07:08 -19.3 °C -21.3 °C 34774.2 hPa Calm     77 % 0 mm 0.0 W/m2 CLR
07:13 -19 °C -20.9 °C 34774.2 hPa Calm     78 % 0 mm 0.0 W/m2 CLR
07:18 -19 °C -20.9 °C 34774.2 hPa Calm     78 % 0 mm 0.0 W/m2 CLR
07:33 -19.3 °C -21.1 °C 34784.4 hPa Calm     79 % 0 mm 0.0 W/m2 CLR
07:38 -19.3 °C -21.1 °C 34784.4 hPa Calm     79 % 0 mm 0.0 W/m2 CLR
07:43 -19.3 °C -21.2 °C 34784.4 hPa Calm     78 % 0 mm 0.0 W/m2 OVC
07:48 -19.3 °C -21.1 °C 34784.4 hPa Calm     79 % 0 mm 0.0 W/m2 OVC
07:53 -19.3 °C -21.1 °C 34784.4 hPa Calm     79 % 0 mm 5.0 W/m2 OVC
07:58 -19.3 °C -21.1 °C 34784.4 hPa Calm     79 % 0 mm 7.0 W/m2 BKN
08:03 -19.3 °C -21.3 °C 34784.4 hPa Calm     77 % 0 mm 9.0 W/m2 BKN
08:08 -19.3 °C -20.9 °C 34784.4 hPa Calm     80 % 0 mm 11.0 W/m2 BKN
08:13 -19.3 °C -21.2 °C 34784.4 hPa Calm     78 % 0 mm 12.0 W/m2 BKN
08:18 -19.3 °C -21.3 °C 34784.4 hPa Calm     77 % 0 mm 14.0 W/m2 BKN
08:23 -19.3 °C -21.2 °C 34797.9 hPa Calm     78 % 0 mm 19.0 W/m2 BKN
08:29 -19 °C -20.9 °C 34797.9 hPa Calm     78 % 0 mm 33.0 W/m2 BKN
08:34 -19 °C -20.9 °C 34797.9 hPa Calm     78 % 0 mm 39.0 W/m2 BKN
08:54 -19 °C -21.2 °C 34797.9 hPa Calm     74 % 0 mm 88.0 W/m2 FEW
09:04 -19 °C -21.6 °C 34808.1 hPa Calm     71 % 0 mm 121.0 W/m2 CLR
09:09 -19 °C -21.6 °C 34808.1 hPa Calm     70 % 0 mm 137.0 W/m2 CLR
09:14 -18.7 °C -21.6 °C 34808.1 hPa Calm     68 % 0 mm 120.0 W/m2 CLR
09:19 -18.4 °C -21.3 °C 34808.1 hPa Calm     67 % 0 mm 165.0 W/m2 CLR
09:34 -18.1 °C -21.3 °C 34808.1 hPa Calm     65 % 0 mm 186.0 W/m2 CLR
09:38 -18.1 °C -21.3 °C 34808.1 hPa Calm     65 % 0 mm 227.0 W/m2 CLR
09:43 -17.8 °C -21.1 °C 34808.1 hPa Calm     64 % 0 mm 236.0 W/m2 CLR
09:48 -17.4 °C -20.9 °C 34808.1 hPa Calm     63 % 0 mm 253.0 W/m2 CLR
09:53 -17.2 °C -20.9 °C 34818.2 hPa Calm     61 % 0 mm 265.0 W/m2 CLR
09:58 -16.8 °C -20.7 °C 34818.2 hPa Calm     60 % 0 mm 279.0 W/m2 CLR
10:03 -16.6 °C -20.7 °C 34818.2 hPa Calm     58 % 0 mm 290.0 W/m2 CLR
10:18 -15.9 °C -20.6 °C 34818.2 hPa Calm     54 % 0 mm 323.0 W/m2 CLR
10:23 -15.3 °C -20.2 °C 34818.2 hPa Calm     53 % 0 mm 322.0 W/m2 CLR
10:43 -14.4 °C -19.8 °C 34831.8 hPa Calm     50 % 0 mm 371.0 W/m2 CLR
10:48 -14.1 °C -19.6 °C 34831.8 hPa Calm     49 % 0 mm 378.0 W/m2 CLR
10:53 -14.1 °C -19.8 °C 34831.8 hPa Calm     48 % 0 mm 387.0 W/m2 CLR
10:58 -13.8 °C -19.8 °C 34831.8 hPa Calm     46 % 0 mm 394.0 W/m2 CLR
11:08 -12.8 °C -18.9 °C 34831.8 hPa Calm     46 % 0 mm 410.0 W/m2 CLR
11:13 -12.8 °C -19.1 °C 34831.8 hPa Calm     45 % 0 mm 418.0 W/m2 CLR
11:23 -12.2 °C -19.4 °C 34831.8 hPa Calm     40 % 0 mm 432.0 W/m2 CLR
11:28 -11.9 °C -19.2 °C 34831.8 hPa Calm     40 % 0 mm 439.0 W/m2 CLR
11:33 -11.6 °C -19.1 °C 34818.2 hPa Calm     39 % 0 mm 446.0 W/m2 CLR
11:38 -11.3 °C -19 °C 34818.2 hPa Calm     38 % 0 mm 448.0 W/m2 CLR
12:03 -10.7 °C -18.7 °C 34808.1 hPa Calm     37 % 0 mm 473.0 W/m2 CLR
12:08 -10.4 °C -18.6 °C 34797.9 hPa Calm     36 % 0 mm 468.0 W/m2 CLR
12:13 -10.4 °C -18.6 °C 34797.9 hPa Calm     36 % 0 mm 469.0 W/m2 CLR
12:23 -10.1 °C -18.5 °C 34797.9 hPa Calm     35 % 0 mm 482.0 W/m2 CLR
12:28 -9.8 °C -18.4 °C 34784.4 hPa Calm     34 % 0 mm 487.0 W/m2 CLR
12:33 -9.8 °C -18.4 °C 34784.4 hPa East 9 km/h 9 km/h 34 % 0 mm 485.0 W/m2 CLR
12:53 -9.8 °C -18.2 °C 34774.2 hPa East 11.9 km/h 11.9 km/h 35 % 0 mm 480.0 W/m2 CLR
13:08 -9.8 °C -18.2 °C 34774.2 hPa East 7.7 km/h 7.7 km/h 35 % 0 mm 487.0 W/m2 CLR
13:13 -9.4 °C -17.9 °C 34774.2 hPa East 3.1 km/h 3.1 km/h 35 % 0 mm 489.0 W/m2 CLR
13:18 -9.4 °C -17.9 °C 34774.2 hPa East 6 km/h 6 km/h 35 % 0 mm 487.0 W/m2 CLR
13:23 -9.4 °C -18.2 °C 34760.7 hPa ESE 9 km/h 9 km/h 34 % 0 mm 489.0 W/m2 CLR
13:33 -9.4 °C -17.9 °C 34760.7 hPa East 6 km/h 6 km/h 35 % 0 mm 476.0 W/m2 CLR
13:38 -9.4 °C -18.2 °C 34760.7 hPa East 9 km/h 9 km/h 34 % 0 mm 468.0 W/m2 CLR
13:53 -9.1 °C -18.2 °C 34750.5 hPa ESE 9 km/h 9 km/h 33 % 0 mm 446.0 W/m2 CLR
13:58 -9.1 °C -18.2 °C 34750.5 hPa East 3.1 km/h 3.1 km/h 33 % 0 mm 446.0 W/m2 CLR
14:08 -9.1 °C -18.2 °C 34750.5 hPa ESE 6 km/h 6 km/h 33 % 0 mm 439.0 W/m2 CLR
14:13 -9.1 °C -17.9 °C 34750.5 hPa Calm     34 % 0 mm 436.0 W/m2 CLR
14:18 -9.1 °C -18.2 °C 34750.5 hPa East 9 km/h 9 km/h 33 % 0 mm 392.0 W/m2 CLR
14:23 -9.1 °C -17.9 °C 34740.4 hPa Calm     34 % 0 mm 387.0 W/m2 CLR
14:38 -9.1 °C -17.9 °C 34740.4 hPa East 9 km/h 9 km/h 34 % 0 mm 392.0 W/m2 CLR
14:53 -8.8 °C -17.7 °C 34726.8 hPa Calm     34 % 0 mm 362.0 W/m2 CLR
14:58 -8.8 °C -17.9 °C 34726.8 hPa East 9 km/h 9 km/h 33 % 0 mm 353.0 W/m2 CLR
15:03 -8.8 °C -17.9 °C 34726.8 hPa East 6 km/h 6 km/h 33 % 0 mm 329.0 W/m2 CLR
15:08 -8.8 °C -17.9 °C 34726.8 hPa Calm     33 % 0 mm 332.0 W/m2 CLR
15:18 -8.8 °C -17.9 °C 34716.7 hPa East 9 km/h 9 km/h 33 % 0 mm 309.0 W/m2 CLR
15:33 -8.8 °C -17.9 °C 34716.7 hPa NE 3.1 km/h 3.1 km/h 33 % 0 mm 272.0 W/m2 CLR
15:48 -9.1 °C -18.2 °C 34716.7 hPa ENE 6 km/h 6 km/h 33 % 0 mm 232.0 W/m2 CLR
15:59 -9.1 °C -18.2 °C 34726.8 hPa East 9 km/h 9 km/h 33 % 0 mm 206.0 W/m2 CLR
16:04 -9.4 °C -18.4 °C 34726.8 hPa Calm     33 % 0 mm 190.0 W/m2 CLR
16:09 -9.4 °C -18.4 °C 34726.8 hPa Calm     33 % 0 mm 174.0 W/m2 CLR
16:19 -9.8 °C -18.7 °C 34726.8 hPa Calm     33 % 0 mm 148.0 W/m2 CLR
16:24 -9.8 °C -18.7 °C 34716.7 hPa Calm     33 % 0 mm 135.0 W/m2 CLR
16:39 -10.4 °C -19.2 °C 34726.8 hPa Calm     33 % 0 mm 91.0 W/m2 CLR
16:44 -10.7 °C -19.5 °C 34716.7 hPa Calm     33 % 0 mm 79.0 W/m2 FEW
16:49 -11 °C -19.6 °C 34726.8 hPa Calm     34 % 0 mm 58.0 W/m2 SCT
16:54 -11.3 °C -19.8 °C 34726.8 hPa Calm     34 % 0 mm 54.0 W/m2 SCT
16:59 -11.6 °C -20.1 °C 34726.8 hPa Calm     34 % 0 mm 42.0 W/m2 BKN
17:04 -11.9 °C -20.4 °C 34726.8 hPa Calm     34 % 0 mm 32.0 W/m2 BKN
17:09 -12.2 °C -20.7 °C 34726.8 hPa Calm     34 % 0 mm 23.0 W/m2 BKN
17:19 -12.6 °C -20.7 °C 34726.8 hPa Calm     35 % 0 mm 14.0 W/m2 BKN
17:24 -12.8 °C -21 °C 34726.8 hPa Calm     35 % 0 mm 12.0 W/m2 BKN
17:34 -13.2 °C -21.1 °C 34726.8 hPa Calm     36 % 0 mm 7.0 W/m2 BKN
17:39 -13.4 °C -21.2 °C 34726.8 hPa Calm     37 % 0 mm 5.0 W/m2 OVC
17:49 -13.8 °C -21 °C 34726.8 hPa Calm     39 % 0 mm 0.0 W/m2 CLR
17:59 -13.8 °C -20.8 °C 34740.4 hPa Calm     40 % 0 mm 0.0 W/m2 CLR
18:04 -13.4 °C -20.6 °C 34740.4 hPa Calm     40 % 0 mm 0.0 W/m2 CLR
18:09 -13.2 °C -20.3 °C 34740.4 hPa Calm     40 % 0 mm 0.0 W/m2 CLR
18:14 -13.4 °C -20.2 °C 34740.4 hPa Calm     42 % 0 mm 0.0 W/m2 CLR
18:19 -13.4 °C -20.2 °C 34740.4 hPa Calm     42 % 0 mm 0.0 W/m2 CLR
18:24 -13.4 °C -20.1 °C 34740.4 hPa Calm     43 % 0 mm 0.0 W/m2 CLR
18:34 -14.1 °C -20.1 °C 34740.4 hPa Calm     46 % 0 mm 0.0 W/m2 CLR
18:44 -14.4 °C -20.1 °C 34740.4 hPa Calm     48 % 0 mm 0.0 W/m2 CLR
18:49 -14.7 °C -20.3 °C 34740.4 hPa Calm     48 % 0 mm 0.0 W/m2 CLR
19:04 -15 °C -20.2 °C 34750.5 hPa Calm     51 % 0 mm 0.0 W/m2 CLR
19:09 -15.3 °C -20.4 °C 34750.5 hPa Calm     51 % 0 mm 0.0 W/m2 CLR
19:14 -15.6 °C -20.4 °C 34750.5 hPa Calm     53 % 0 mm 0.0 W/m2 CLR
19:19 -15.9 °C -20.6 °C 34750.5 hPa Calm     54 % 0 mm 0.0 W/m2 CLR
19:24 -15.9 °C -20.7 °C 34750.5 hPa Calm     53 % 0 mm 0.0 W/m2 CLR
19:29 -16.2 °C -21.1 °C 34750.5 hPa Calm     53 % 0 mm 0.0 W/m2 CLR
19:44 -16.6 °C -21.1 °C 34760.7 hPa Calm     55 % 0 mm 0.0 W/m2 CLR
19:59 -16.2 °C -20.7 °C 34760.7 hPa Calm     56 % 0 mm 0.0 W/m2 CLR
20:04 -16.2 °C -20.7 °C 34760.7 hPa Calm     56 % 0 mm 0.0 W/m2 CLR
20:09 -16.6 °C -20.9 °C 34760.7 hPa Calm     56 % 0 mm 0.0 W/m2 CLR
20:14 -16.6 °C -20.8 °C 34760.7 hPa Calm     57 % 0 mm 0.0 W/m2 CLR
20:19 -16.8 °C -21.1 °C 34760.7 hPa Calm     57 % 0 mm 0.0 W/m2 CLR
20:29 -17.2 °C -21.2 °C 34760.7 hPa Calm     58 % 0 mm 0.0 W/m2 CLR
20:34 -17.2 °C -21.2 °C 34760.7 hPa Calm     58 % 0 mm 0.0 W/m2 CLR
20:39 -17.4 °C -21.4 °C 34774.2 hPa Calm     59 % 0 mm 0.0 W/m2 CLR
20:44 -17.4 °C -21.4 °C 34774.2 hPa Calm     59 % 0 mm 0.0 W/m2 CLR
20:49 -17.8 °C -21.7 °C 34774.2 hPa Calm     59 % 0 mm 0.0 W/m2 CLR
21:24 -17.8 °C -21.4 °C 34784.4 hPa Calm     61 % 0 mm 0.0 W/m2 CLR
21:29 -17.4 °C -21.2 °C 34784.4 hPa Calm     61 % 0 mm 0.0 W/m2 CLR
21:34 -17.4 °C -21.2 °C 34774.2 hPa Calm     61 % 0 mm 0.0 W/m2 CLR
21:39 -17.4 °C -21.2 °C 34774.2 hPa Calm     61 % 0 mm 0.0 W/m2 CLR
21:44 -17.8 °C -21.3 °C 34774.2 hPa Calm     62 % 0 mm 0.0 W/m2 CLR
21:59 -17.2 °C -20.7 °C 34774.2 hPa Calm     63 % 0 mm 0.0 W/m2 CLR
22:04 -17.2 °C -20.7 °C 34774.2 hPa Calm     63 % 0 mm 0.0 W/m2 CLR
22:09 -17.4 °C -20.9 °C 34774.2 hPa Calm     63 % 0 mm 0.0 W/m2 CLR
22:15 -17.4 °C -20.8 °C 34774.2 hPa Calm     64 % 0 mm 0.0 W/m2 CLR
22:30 -18.1 °C -21.3 °C 34774.2 hPa Calm     65 % 0 mm 0.0 W/m2 CLR
22:35 -18.1 °C -21.2 °C 34774.2 hPa Calm     66 % 0 mm 0.0 W/m2 CLR
22:40 -17.8 °C -21 °C 34774.2 hPa Calm     65 % 0 mm 0.0 W/m2 CLR
22:45 -17.8 °C -21 °C 34774.2 hPa Calm     65 % 0 mm 0.0 W/m2 CLR
23:00 -17.8 °C -20.9 °C 34774.2 hPa Calm     66 % 0 mm 0.0 W/m2 CLR
23:10 -17.8 °C -20.8 °C 34774.2 hPa Calm     67 % 0 mm 0.0 W/m2 CLR
23:15 -17.8 °C -20.8 °C 34774.2 hPa Calm     67 % 0 mm 0.0 W/m2 CLR
23:30 -17.4 °C -20.5 °C 34774.2 hPa Calm     67 % 0 mm 0.0 W/m2 CLR
23:45 -17.8 °C -20.7 °C 34774.2 hPa Calm     68 % 0 mm 0.0 W/m2 CLR
23:50 -17.4 °C -20.4 °C 34774.2 hPa Calm     68 % 0 mm 0.0 W/m2 CLR
23:55 -17.4 °C -20.3 °C 34774.2 hPa Calm     69 % 0 mm 0.0 W/m2 CLR
Lo Temps de Massalio
Compliments of Weather Underground - 1 mb